createdAt,value
2022-08-05T00:00:19.453Z,3.97
2022-08-05T00:02:51.639Z,3.62
2022-08-05T00:06:02.632Z,4.82
2022-08-05T00:08:35.182Z,4.87
2022-08-05T00:10:56.361Z,5.95
2022-08-05T00:13:39.444Z,6.87
2022-08-05T00:16:08.551Z,3.20
2022-08-05T00:18:36.079Z,3.33
2022-08-05T00:21:05.053Z,3.95
2022-08-05T00:23:46.060Z,5.93
2022-08-05T00:26:13.807Z,4.18
2022-08-05T00:28:43.209Z,5.82
2022-08-05T00:31:12.413Z,6.22
2022-08-05T00:34:54.292Z,4.43
2022-08-05T00:37:11.836Z,4.43
2022-08-05T00:39:13.799Z,5.32
2022-08-05T00:41:51.984Z,2.95
2022-08-05T00:44:23.176Z,4.32
2022-08-05T00:46:54.187Z,4.25
2022-08-05T00:49:32.574Z,7.82
2022-08-05T00:52:11.097Z,3.67
2022-08-05T00:54:38.646Z,5.12
2022-08-05T00:57:05.295Z,5.12
2022-08-05T00:59:34.744Z,7.25
2022-08-05T01:02:11.323Z,5.93
2022-08-05T01:04:38.007Z,3.90
2022-08-05T01:07:08.810Z,4.22
2022-08-05T01:09:41.857Z,4.07
2022-08-05T01:12:18.159Z,4.37
2022-08-05T01:14:48.874Z,5.50
2022-08-05T01:17:53.531Z,5.68
2022-08-05T01:20:58.044Z,6.37
2022-08-05T01:23:53.209Z,4.10
2022-08-05T01:26:54.023Z,3.83
2022-08-05T01:29:30.767Z,5.45
2022-08-05T01:32:00.722Z,5.37
2022-08-05T01:34:38.044Z,7.05
2022-08-05T01:37:25.437Z,5.03
2022-08-05T01:42:25.449Z,6.12
2022-08-05T01:44:53.944Z,7.30
2022-08-05T01:47:21.182Z,5.95
2022-08-05T01:50:02.227Z,6.85
2022-08-05T01:52:30.145Z,6.18
2022-08-05T01:54:58.076Z,8.57
2022-08-05T01:58:29.709Z,8.55
2022-08-05T02:00:19.308Z,5.12
2022-08-05T02:02:54.357Z,5.03
2022-08-05T02:05:23.711Z,6.63
2022-08-05T02:07:57.830Z,5.57
2022-08-05T02:10:28.687Z,4.87
2022-08-05T02:12:57.062Z,6.18
2022-08-05T02:15:24.910Z,8.38
2022-08-05T02:18:32.447Z,5.37
2022-08-05T02:20:58.638Z,6.57
2022-08-05T02:23:29.144Z,14.70
2022-08-05T02:26:00.608Z,10.70
2022-08-05T02:28:32.125Z,10.07
2022-08-05T02:31:14.617Z,7.85
2022-08-05T02:33:45.094Z,5.30
2022-08-05T02:36:16.608Z,6.30
2022-08-05T02:38:53.167Z,4.50
2022-08-05T02:44:06.503Z,7.43
2022-08-05T02:46:36.374Z,6.07
2022-08-05T02:49:20.267Z,11.65
2022-08-05T02:52:03.190Z,5.37
2022-08-05T02:54:34.841Z,10.20
2022-08-05T02:57:03.342Z,6.25
2022-08-05T02:59:50.717Z,5.47
2022-08-05T03:02:20.452Z,4.87
2022-08-05T03:04:47.124Z,7.78
2022-08-05T03:07:48.456Z,6.93
2022-08-05T03:10:07.238Z,5.77
2022-08-05T03:12:34.994Z,4.18
2022-08-05T03:15:01.591Z,7.20
2022-08-05T03:17:28.559Z,8.40
2022-08-05T03:19:55.308Z,6.57
2022-08-05T03:22:32.175Z,6.50
2022-08-05T03:25:31.499Z,7.47
2022-08-05T03:27:58.883Z,8.03
2022-08-05T03:30:33.751Z,7.78
2022-08-05T03:33:05.780Z,5.50
2022-08-05T03:35:33.884Z,5.47
2022-08-05T03:38:07.302Z,6.18
2022-08-05T03:40:34.261Z,6.15
2022-08-05T03:43:15.968Z,6.85
2022-08-05T03:45:57.728Z,7.12
2022-08-05T03:48:27.173Z,11.38
2022-08-05T03:52:49.112Z,5.82
2022-08-05T03:55:50.442Z,10.80
2022-08-05T03:56:50.981Z,4.70
2022-08-05T03:59:29.243Z,8.10
2022-08-05T04:02:17.336Z,8.27
2022-08-05T04:04:44.891Z,5.72
2022-08-05T04:07:11.580Z,7.62
2022-08-05T04:09:39.786Z,6.53
2022-08-05T04:12:24.445Z,6.43
2022-08-05T04:14:51.527Z,7.72
2022-08-05T04:17:18.167Z,6.60
2022-08-05T04:19:46.395Z,8.13
2022-08-05T04:22:21.355Z,6.93
2022-08-05T04:24:52.812Z,7.45
2022-08-05T04:27:19.775Z,11.35
2022-08-05T04:30:07.237Z,8.23
2022-08-05T04:32:33.837Z,9.63
2022-08-05T04:35:03.008Z,8.35
2022-08-05T04:38:02.864Z,12.20
2022-08-05T04:40:19.784Z,7.18
2022-08-05T04:42:46.514Z,10.35
2022-08-05T04:45:14.165Z,5.62
2022-08-05T04:47:49.698Z,7.65
2022-08-05T04:50:37.362Z,12.27
2022-08-05T04:53:04.311Z,7.75
2022-08-05T04:56:14.429Z,5.80
2022-08-05T04:58:17.811Z,7.57
2022-08-05T05:00:50.832Z,9.88
2022-08-05T05:03:18.800Z,9.90
2022-08-05T05:06:40.199Z,9.02
2022-08-05T05:08:33.631Z,6.87
2022-08-05T05:11:00.389Z,8.60
2022-08-05T05:13:26.981Z,5.37
2022-08-05T05:16:02.179Z,7.43
2022-08-05T05:18:33.829Z,7.80
2022-08-05T05:21:01.595Z,7.60
2022-08-05T05:23:38.772Z,10.15
2022-08-05T05:26:14.748Z,8.23
2022-08-05T05:28:44.842Z,8.93
2022-08-05T05:31:11.909Z,15.27
2022-08-05T05:33:59.732Z,11.40
2022-08-05T05:36:25.182Z,8.95
2022-08-05T05:38:55.600Z,9.40
2022-08-05T05:41:22.265Z,9.07
2022-08-05T05:43:57.345Z,8.13
2022-08-05T05:46:26.767Z,7.75
2022-08-05T05:48:53.404Z,7.70
2022-08-05T05:51:21.613Z,6.40
2022-08-05T05:53:57.941Z,8.18
2022-08-05T05:56:32.528Z,7.65
2022-08-05T05:59:03.541Z,7.20
2022-08-05T06:01:37.897Z,7.53
2022-08-05T06:04:12.948Z,7.00
2022-08-05T06:06:42.810Z,9.20
2022-08-05T06:09:16.700Z,7.15
2022-08-05T06:11:59.480Z,7.22
2022-08-05T06:14:27.951Z,7.60
2022-08-05T06:16:55.583Z,11.48
2022-08-05T06:19:26.199Z,5.18
2022-08-05T06:22:02.798Z,4.95
2022-08-05T06:24:29.977Z,5.78
2022-08-05T06:26:57.690Z,7.57
2022-08-05T06:29:49.240Z,7.20
2022-08-05T06:32:21.195Z,5.32
2022-08-05T06:34:53.584Z,7.35
2022-08-05T06:37:55.570Z,6.43
2022-08-05T06:40:10.142Z,5.60
2022-08-05T06:42:37.086Z,5.55
2022-08-05T06:45:08.781Z,4.03
2022-08-05T06:48:37.317Z,5.47
2022-08-05T06:50:23.507Z,5.93
2022-08-05T06:53:03.648Z,5.43
2022-08-05T06:55:37.016Z,6.43
2022-08-05T06:58:29.238Z,5.12
2022-08-05T07:00:50.902Z,6.90
2022-08-05T07:03:17.602Z,5.50
2022-08-05T07:05:44.637Z,8.68
2022-08-05T07:08:13.073Z,9.45
2022-08-05T07:10:52.879Z,7.97
2022-08-05T07:13:59.468Z,9.63
2022-08-05T07:18:01.494Z,8.13
2022-08-05T07:22:28.271Z,4.60
2022-08-05T07:25:23.909Z,5.22
2022-08-05T07:27:57.586Z,5.87
2022-08-05T07:30:34.307Z,7.68
2022-08-05T07:33:09.005Z,4.95
2022-08-05T07:36:05.300Z,3.85
2022-08-05T07:38:32.993Z,2.58
2022-08-05T07:41:16.861Z,10.90
2022-08-05T07:43:49.308Z,3.90
2022-08-05T07:46:20.745Z,21.00
2022-08-05T07:49:02.030Z,5.18
2022-08-05T07:51:36.798Z,16.37
2022-08-05T07:54:09.535Z,4.05
2022-08-05T07:57:01.305Z,5.35
2022-08-05T07:59:31.007Z,6.65
2022-08-05T08:02:07.563Z,6.60
2022-08-05T08:04:42.990Z,2.70
2022-08-05T08:07:11.969Z,5.53
2022-08-05T08:09:38.612Z,5.03
2022-08-05T08:12:11.460Z,5.30
2022-08-05T08:14:47.065Z,4.35
2022-08-05T08:17:16.055Z,2.42
2022-08-05T08:20:43.383Z,3.30
2022-08-05T08:22:34.852Z,5.72
2022-08-05T08:25:02.808Z,2.62
2022-08-05T08:27:40.419Z,5.93
2022-08-05T08:30:19.617Z,5.57
2022-08-05T08:35:41.460Z,6.65
2022-08-05T08:38:35.706Z,5.07
2022-08-05T08:41:05.724Z,4.40
2022-08-05T08:45:20.003Z,4.62
2022-08-05T08:46:20.811Z,5.00
2022-08-05T08:49:06.196Z,6.22
2022-08-05T08:52:02.850Z,7.32
2022-08-05T08:54:21.056Z,7.57
2022-08-05T08:56:54.076Z,3.85
2022-08-05T08:59:23.218Z,7.78
2022-08-05T09:01:57.582Z,3.65
2022-08-05T09:04:30.357Z,2.42
2022-08-05T09:06:57.680Z,3.97
2022-08-05T09:09:25.196Z,5.32
2022-08-05T09:11:54.757Z,5.25
2022-08-05T09:14:58.531Z,6.68
2022-08-05T09:17:40.089Z,6.37
2022-08-05T09:20:02.658Z,5.37
2022-08-05T09:23:04.937Z,5.05
2022-08-05T09:26:02.193Z,4.30
2022-08-05T09:28:32.602Z,4.15
2022-08-05T09:31:44.096Z,5.60
2022-08-05T09:34:01.047Z,2.75
2022-08-05T09:36:54.402Z,3.75
2022-08-05T09:39:39.157Z,6.15
2022-08-05T09:42:11.452Z,6.37
2022-08-05T09:44:50.621Z,4.72
2022-08-05T09:47:20.624Z,4.90
2022-08-05T09:50:01.931Z,5.47
2022-08-05T09:52:35.786Z,2.50
2022-08-05T09:55:58.100Z,4.68
2022-08-05T09:58:00.049Z,5.45
2022-08-05T10:00:27.809Z,5.50
2022-08-05T10:02:58.251Z,4.45
2022-08-05T10:05:27.033Z,3.70
2022-08-05T10:08:35.203Z,4.45
2022-08-05T10:10:44.559Z,5.00
2022-08-05T10:13:11.613Z,5.55
2022-08-05T10:15:41.808Z,4.90
2022-08-05T10:18:20.398Z,8.13
2022-08-05T10:20:50.058Z,7.15
2022-08-05T10:23:58.858Z,4.68
2022-08-05T10:26:32.604Z,5.32
2022-08-05T10:29:00.683Z,4.70
2022-08-05T10:32:52.972Z,7.10
2022-08-05T10:34:13.915Z,9.10
2022-08-05T10:36:41.233Z,7.28
2022-08-05T10:39:14.990Z,7.10
2022-08-05T10:42:01.492Z,7.03
2022-08-05T10:44:28.184Z,6.37
2022-08-05T10:46:56.387Z,8.85
2022-08-05T10:49:27.167Z,6.43
2022-08-05T10:52:02.399Z,4.50
2022-08-05T10:55:04.727Z,5.15
2022-08-05T10:57:31.984Z,6.20
2022-08-05T11:00:27.327Z,3.67
2022-08-05T11:02:59.251Z,8.27
2022-08-05T11:06:03.710Z,6.45
2022-08-05T11:08:39.221Z,8.07
2022-08-05T11:11:33.214Z,6.37
2022-08-05T11:14:12.472Z,3.22
2022-08-05T11:16:56.665Z,5.72
2022-08-05T11:20:10.335Z,4.95
2022-08-05T11:22:50.102Z,4.95
2022-08-05T11:26:10.075Z,2.25
2022-08-05T11:28:38.042Z,4.55
2022-08-05T11:31:07.678Z,7.18
2022-08-05T11:33:46.592Z,5.68
2022-08-05T11:36:34.286Z,3.90
2022-08-05T11:39:12.048Z,4.10
2022-08-05T11:42:01.673Z,7.18
2022-08-05T11:44:52.946Z,11.52
2022-08-05T11:47:22.142Z,5.87
2022-08-05T11:50:07.654Z,5.78
2022-08-05T11:52:34.316Z,1.98
2022-08-05T11:55:07.282Z,4.30
2022-08-05T11:58:08.315Z,4.93
2022-08-05T12:00:28.801Z,4.28
2022-08-05T12:02:56.589Z,3.47
2022-08-05T12:05:32.247Z,3.55
2022-08-05T12:08:11.006Z,8.77
2022-08-05T12:10:45.925Z,9.87
2022-08-05T12:13:27.687Z,4.03
2022-08-05T12:16:14.532Z,2.42
2022-08-05T12:18:42.735Z,2.95
2022-08-05T12:21:29.988Z,3.12
2022-08-05T12:24:04.645Z,14.30
2022-08-05T12:26:48.524Z,6.43
2022-08-05T12:29:23.682Z,7.32
2022-08-05T12:31:54.627Z,4.37
2022-08-05T12:34:25.756Z,3.58
2022-08-05T12:36:53.495Z,5.65
2022-08-05T12:39:20.275Z,2.72
2022-08-05T12:41:46.935Z,4.12
2022-08-05T12:44:21.662Z,4.12
2022-08-05T12:47:00.155Z,3.60
2022-08-05T12:50:04.594Z,2.97
2022-08-05T12:52:29.575Z,5.87
2022-08-05T12:55:00.441Z,5.80
2022-08-05T12:57:28.790Z,4.07
2022-08-05T13:02:00.104Z,5.97
2022-08-05T13:03:12.320Z,4.43
2022-08-05T13:05:41.597Z,7.22
2022-08-05T13:08:08.879Z,6.18
2022-08-05T13:10:50.660Z,3.55
2022-08-05T13:14:07.348Z,4.97
2022-08-05T13:16:12.389Z,5.87
2022-08-05T13:18:55.141Z,4.55
2022-08-05T13:21:28.267Z,5.22
2022-08-05T13:24:05.542Z,4.85
2022-08-05T13:26:32.174Z,6.72
2022-08-05T13:28:59.212Z,4.93
2022-08-05T13:32:03.386Z,4.40
2022-08-05T13:34:22.020Z,3.55
2022-08-05T13:36:52.068Z,6.32
2022-08-05T13:39:24.649Z,5.93
2022-08-05T13:42:05.403Z,2.90
2022-08-05T13:44:32.635Z,3.10
2022-08-05T13:47:02.562Z,4.90
2022-08-05T13:49:35.253Z,7.40
2022-08-05T13:52:12.431Z,5.82
2022-08-05T13:54:39.280Z,4.78
2022-08-05T13:57:06.492Z,5.45
2022-08-05T13:59:33.152Z,7.72
2022-08-05T14:02:02.873Z,2.97
2022-08-05T14:04:52.115Z,2.65
2022-08-05T14:07:59.475Z,3.58
2022-08-05T14:10:28.197Z,7.72
2022-08-05T14:12:55.900Z,8.25
2022-08-05T14:16:09.255Z,5.05
2022-08-05T14:18:14.674Z,3.15
2022-08-05T14:20:46.989Z,4.70
2022-08-05T14:23:14.795Z,3.42
2022-08-05T14:25:54.220Z,4.82
2022-08-05T14:28:26.314Z,5.90
2022-08-05T14:30:54.636Z,5.10
2022-08-05T14:33:22.792Z,5.45
2022-08-05T14:35:52.072Z,5.65
2022-08-05T14:38:31.612Z,2.40
2022-08-05T14:41:00.958Z,3.85
2022-08-05T14:43:59.271Z,6.50
2022-08-05T14:48:40.754Z,3.37
2022-08-05T14:51:08.368Z,3.03
2022-08-05T14:53:44.161Z,3.62
2022-08-05T14:58:38.541Z,3.97
2022-08-05T15:03:43.449Z,4.45
2022-08-05T15:06:15.146Z,3.03
2022-08-05T15:09:01.173Z,3.62
2022-08-05T15:11:52.831Z,4.62
2022-08-05T15:17:03.793Z,2.95
2022-08-05T15:19:31.058Z,6.28
2022-08-05T15:22:00.271Z,2.97
2022-08-05T15:24:28.081Z,3.80
2022-08-05T15:26:55.780Z,5.87
2022-08-05T15:29:23.013Z,5.85
2022-08-05T15:31:53.016Z,3.20
2022-08-05T15:34:32.119Z,4.03
2022-08-05T15:37:03.444Z,3.67
2022-08-05T15:41:02.879Z,3.75
2022-08-05T15:42:54.804Z,2.65
2022-08-05T15:45:06.485Z,4.60
2022-08-05T15:47:35.894Z,3.83
2022-08-05T15:50:02.760Z,5.22
2022-08-05T15:52:51.769Z,2.67
2022-08-05T15:55:17.686Z,8.45
2022-08-05T15:57:48.862Z,3.30
2022-08-05T16:00:26.419Z,3.70
2022-08-05T16:02:57.980Z,5.30
2022-08-05T16:05:28.187Z,3.72
2022-08-05T16:07:55.184Z,3.42
2022-08-05T16:10:25.570Z,3.87
2022-08-05T16:12:55.979Z,2.42
2022-08-05T16:15:23.326Z,3.83
2022-08-05T16:17:57.859Z,4.68
2022-08-05T16:20:25.499Z,4.47
2022-08-05T16:22:52.837Z,6.35
2022-08-05T16:25:19.508Z,5.50
2022-08-05T16:28:00.340Z,2.60
2022-08-05T16:30:32.261Z,4.53
2022-08-05T16:32:59.362Z,2.17
2022-08-05T16:35:28.252Z,4.32
2022-08-05T16:38:03.657Z,4.72
2022-08-05T16:40:52.068Z,7.70
2022-08-05T16:43:27.287Z,2.55
2022-08-05T16:46:04.010Z,2.83
2022-08-05T16:48:35.820Z,4.18
2022-08-05T16:51:08.720Z,7.82
2022-08-05T16:54:03.480Z,7.35
2022-08-05T16:56:23.732Z,5.47
2022-08-05T16:58:50.564Z,3.95
2022-08-05T17:01:18.763Z,3.03
2022-08-05T17:03:45.830Z,6.18
2022-08-05T17:06:12.641Z,5.80
2022-08-05T17:08:53.230Z,3.42
2022-08-05T17:11:23.433Z,4.97
2022-08-05T17:13:50.657Z,5.03
2022-08-05T17:16:32.796Z,4.75
2022-08-05T17:19:00.590Z,5.28
2022-08-05T17:21:35.333Z,3.37
2022-08-05T17:24:18.391Z,4.57
2022-08-05T17:26:53.533Z,4.18
2022-08-05T17:29:22.788Z,4.40
2022-08-05T17:32:00.724Z,4.97
2022-08-05T17:34:29.725Z,3.08
2022-08-05T17:36:58.732Z,4.25
2022-08-05T17:39:33.965Z,4.62
2022-08-05T17:42:17.558Z,2.85
2022-08-05T17:44:50.808Z,4.35
2022-08-05T17:47:22.477Z,5.87
2022-08-05T17:50:00.030Z,3.45
2022-08-05T17:52:31.864Z,6.60
2022-08-05T17:54:58.473Z,8.77
2022-08-05T17:57:25.093Z,8.02
2022-08-05T18:00:04.937Z,5.10
2022-08-05T18:02:34.231Z,5.62
2022-08-05T18:05:06.287Z,5.15
2022-08-05T18:07:41.321Z,7.20
2022-08-05T18:10:10.339Z,11.50
2022-08-05T18:12:37.338Z,7.93
2022-08-05T18:15:04.295Z,4.18
2022-08-05T18:17:58.994Z,7.97
2022-08-05T18:20:19.471Z,6.82
2022-08-05T18:22:57.221Z,7.30
2022-08-05T18:25:25.002Z,11.10
2022-08-05T18:27:52.213Z,9.60
2022-08-05T18:30:19.211Z,8.68
2022-08-05T18:32:53.180Z,7.32
2022-08-05T18:35:21.036Z,7.65
2022-08-05T18:38:07.779Z,14.85
2022-08-05T18:41:53.994Z,8.55
2022-08-05T18:43:21.670Z,8.93
2022-08-05T18:45:49.736Z,8.80
2022-08-05T18:48:30.473Z,8.93
2022-08-05T18:52:06.152Z,9.20
2022-08-05T18:54:04.088Z,10.57
2022-08-05T18:56:30.698Z,6.22
2022-08-05T18:59:01.214Z,10.80
2022-08-05T19:01:33.181Z,9.20
2022-08-05T19:04:13.963Z,16.48
2022-08-05T19:06:50.845Z,14.25
2022-08-05T19:09:17.530Z,9.57
2022-08-05T19:12:00.015Z,10.85
2022-08-05T19:14:44.536Z,6.97
2022-08-05T19:17:15.794Z,7.68
2022-08-05T19:19:48.546Z,10.43
2022-08-05T19:22:17.178Z,9.20
2022-08-05T19:24:55.778Z,9.50
2022-08-05T19:27:24.174Z,9.48
2022-08-05T19:29:57.179Z,12.35
2022-08-05T19:32:25.902Z,10.20
2022-08-05T19:34:54.693Z,13.48
2022-08-05T19:37:29.887Z,10.52
2022-08-05T19:40:02.144Z,11.05
2022-08-05T19:42:36.302Z,11.93
2022-08-05T19:45:05.637Z,7.57
2022-08-05T19:47:33.905Z,11.48
2022-08-05T19:50:01.134Z,10.27
2022-08-05T19:52:31.854Z,11.85
2022-08-05T19:55:00.505Z,12.95
2022-08-05T19:58:02.766Z,13.10
2022-08-05T20:00:20.813Z,13.43
2022-08-05T20:02:47.549Z,10.23
2022-08-05T20:05:16.415Z,12.18
2022-08-05T20:07:55.042Z,9.73
2022-08-05T20:10:24.987Z,17.08
2022-08-05T20:12:51.801Z,10.23
2022-08-05T20:15:47.809Z,12.32
2022-08-05T20:18:10.807Z,9.38
2022-08-05T20:20:55.323Z,14.13
2022-08-05T20:23:23.827Z,11.40
2022-08-05T20:26:07.487Z,12.07
2022-08-05T20:28:34.318Z,13.05
2022-08-05T20:31:02.686Z,14.30
2022-08-05T20:33:29.525Z,9.23
2022-08-05T20:35:57.675Z,11.32
2022-08-05T20:38:26.863Z,11.82
2022-08-05T20:40:55.497Z,11.52
2022-08-05T20:43:33.185Z,12.05
2022-08-05T20:46:10.359Z,16.27
2022-08-05T20:48:44.940Z,9.15
2022-08-05T20:51:17.596Z,11.02
2022-08-05T20:53:44.192Z,8.45
2022-08-05T20:56:28.954Z,13.30
2022-08-05T20:59:00.047Z,10.20
2022-08-05T21:01:38.526Z,9.63
2022-08-05T21:04:07.259Z,9.75
2022-08-05T21:06:36.947Z,12.00
2022-08-05T21:09:07.882Z,11.65
2022-08-05T21:12:07.206Z,16.60
2022-08-05T21:14:26.695Z,13.40
2022-08-05T21:16:53.489Z,10.40
2022-08-05T21:19:20.201Z,14.57
2022-08-05T21:21:50.581Z,10.48
2022-08-05T21:24:19.690Z,14.85
2022-08-05T21:26:57.959Z,12.20
2022-08-05T21:29:26.483Z,9.77
2022-08-05T21:31:57.933Z,11.55
2022-08-05T21:34:24.516Z,15.15
2022-08-05T21:36:51.126Z,8.93
2022-08-05T21:39:26.776Z,10.95
2022-08-05T21:42:01.964Z,13.18
2022-08-05T21:44:32.084Z,10.10
2022-08-05T21:46:58.998Z,11.25
2022-08-05T21:49:48.342Z,12.02
2022-08-05T21:54:54.941Z,14.97
2022-08-05T21:57:31.456Z,12.20
2022-08-05T22:00:05.290Z,13.18
2022-08-05T22:02:33.713Z,13.82
2022-08-05T22:05:00.395Z,15.27
2022-08-05T22:07:40.452Z,10.27
2022-08-05T22:10:15.164Z,11.30
2022-08-05T22:12:45.015Z,11.75
2022-08-05T22:16:01.660Z,10.70
2022-08-05T22:18:04.541Z,14.05
2022-08-05T22:20:31.188Z,10.27
2022-08-05T22:23:21.444Z,14.07
2022-08-05T22:26:10.403Z,11.25
2022-08-05T22:28:38.245Z,8.63
2022-08-05T22:31:05.848Z,11.15
2022-08-05T22:33:57.134Z,16.30
2022-08-05T22:36:19.431Z,9.75
2022-08-05T22:38:50.923Z,10.25
2022-08-05T22:42:05.671Z,10.13
2022-08-05T22:44:05.470Z,12.13
2022-08-05T22:46:32.045Z,10.20
2022-08-05T22:48:59.147Z,8.90
2022-08-05T22:52:04.547Z,6.87
2022-08-05T22:54:12.349Z,9.13
2022-08-05T22:56:40.037Z,8.35
2022-08-05T22:59:43.917Z,9.30
2022-08-05T23:02:06.048Z,9.73
2022-08-05T23:04:34.649Z,11.90
2022-08-05T23:07:01.503Z,10.90
2022-08-05T23:09:57.199Z,15.63
2022-08-05T23:12:17.762Z,13.32
2022-08-05T23:14:44.588Z,9.45
2022-08-05T23:17:24.523Z,11.82
2022-08-05T23:20:02.315Z,10.52
2022-08-05T23:22:29.244Z,8.80
2022-08-05T23:24:57.486Z,11.55
2022-08-05T23:27:24.260Z,10.68
2022-08-05T23:29:57.820Z,11.63
2022-08-05T23:32:24.742Z,12.02
2022-08-05T23:34:53.761Z,10.45
2022-08-05T23:37:20.369Z,10.18
2022-08-05T23:39:54.157Z,8.65
2022-08-05T23:42:23.510Z,10.90
2022-08-05T23:44:55.752Z,8.40
2022-08-05T23:47:22.389Z,11.32
2022-08-05T23:49:52.207Z,9.65
2022-08-05T23:52:26.471Z,9.60
2022-08-05T23:54:58.041Z,7.55
2022-08-05T23:57:25.959Z,11.38
